Time;durP1;ratioP1;P1;durP2;ratioP2;P2;SDS_P1;SDS_P2;PMS_P1;PMS_P2;Temp;Humidity;BMP_temperature;BMP_pressure;BME280_temperature;BME280_humidity;BME280_pressure;Samples;Min_cycle;Max_cycle;Signal;HPM_P1;HPM_P2
2022/02/14 00:00:49;;;;;;;6.22;3.80;;;-2.10;99.90;;;;;;5089478;28;20239;-67
2022/02/14 00:03:15;;;;;;;12.07;5.28;;;-2.40;99.90;;;;;;5089039;28;20211;-68
2022/02/14 00:05:41;;;;;;;5.80;4.22;;;-2.50;99.90;;;;;;5089257;28;20186;-67
2022/02/14 00:08:07;;;;;;;11.23;4.88;;;-2.70;99.90;;;;;;5089080;28;20203;-68
2022/02/14 00:10:33;;;;;;;10.27;4.22;;;-2.50;99.90;;;;;;5089147;28;20561;-67
2022/02/14 00:12:59;;;;;;;11.10;5.38;;;-2.40;99.90;;;;;;5087696;28;20192;-68
2022/02/14 00:15:25;;;;;;;6.97;4.47;;;-2.20;99.90;;;;;;5087857;28;20164;-67
2022/02/14 00:17:51;;;;;;;9.02;4.63;;;-2.10;99.90;;;;;;5088978;28;20187;-68
2022/02/14 00:20:17;;;;;;;10.23;4.47;;;-2.00;99.90;;;;;;5087704;28;20190;-68
2022/02/14 00:22:43;;;;;;;5.82;4.10;;;-2.10;99.90;;;;;;5089080;28;20211;-68
2022/02/14 00:25:10;;;;;;;6.25;3.75;;;-2.10;99.90;;;;;;5088969;28;20179;-68
2022/02/14 00:27:37;;;;;;;9.98;4.72;;;-2.20;99.90;;;;;;5086112;28;20159;-67
2022/02/14 00:30:04;;;;;;;7.78;4.45;;;-2.20;99.90;;;;;;5068817;28;20180;-68
2022/02/14 00:32:30;;;;;;;6.43;3.80;;;-2.20;99.90;;;;;;5082116;28;20180;-68
2022/02/14 00:34:56;;;;;;;8.50;4.88;;;-2.30;99.90;;;;;;5070814;28;20558;-68
2022/02/14 00:37:22;;;;;;;5.65;3.67;;;-2.50;99.90;;;;;;5076723;28;20562;-67
2022/02/14 00:39:48;;;;;;;7.35;4.57;;;-2.50;99.90;;;;;;5088906;28;20160;-67
2022/02/14 00:42:14;;;;;;;7.05;4.10;;;-2.50;99.90;;;;;;5088881;28;20190;-68
2022/02/14 00:44:40;;;;;;;8.45;5.40;;;-2.40;99.90;;;;;;5088870;28;20168;-68
2022/02/14 00:47:06;;;;;;;6.25;4.05;;;-2.50;99.90;;;;;;5088784;28;20168;-68
2022/02/14 00:49:32;;;;;;;7.00;4.65;;;-2.60;99.90;;;;;;5088729;28;20188;-68
2022/02/14 00:51:58;;;;;;;6.35;3.92;;;-2.80;99.90;;;;;;5084160;28;20180;-68
2022/02/14 00:54:24;;;;;;;4.22;3.75;;;-2.90;99.90;;;;;;5068495;28;20184;-68
2022/02/14 00:56:50;;;;;;;7.88;4.43;;;-2.90;99.90;;;;;;5068635;28;20180;-67
2022/02/14 00:59:16;;;;;;;8.63;4.43;;;-2.90;99.90;;;;;;5068550;28;20262;-67
2022/02/14 01:01:42;;;;;;;7.22;4.78;;;-2.90;99.90;;;;;;5069214;28;20508;-68
2022/02/14 01:04:08;;;;;;;12.98;5.25;;;-2.90;99.90;;;;;;5078089;28;20196;-68
2022/02/14 01:06:34;;;;;;;10.32;5.10;;;-2.80;99.90;;;;;;5092314;28;20152;-68
2022/02/14 01:09:00;;;;;;;8.65;4.57;;;-2.70;99.90;;;;;;5092198;28;20249;-68
2022/02/14 01:11:25;;;;;;;11.25;4.65;;;-2.80;99.90;;;;;;5092344;28;20160;-68
2022/02/14 01:13:52;;;;;;;10.10;5.00;;;-2.90;99.90;;;;;;5092016;28;20188;-68
2022/02/14 01:16:19;;;;;;;15.23;5.47;;;-2.90;99.90;;;;;;5092032;28;20199;-68
2022/02/14 01:18:45;;;;;;;6.05;4.63;;;-2.70;99.90;;;;;;5091960;28;20194;-68
2022/02/14 01:21:11;;;;;;;9.20;4.63;;;-2.80;99.90;;;;;;5091992;28;20149;-68
2022/02/14 01:23:37;;;;;;;10.07;5.15;;;-2.90;99.90;;;;;;5092039;28;20164;-67
2022/02/14 01:26:03;;;;;;;9.07;4.10;;;-3.00;99.90;;;;;;5075308;28;20188;-68
2022/02/14 01:28:29;;;;;;;11.07;5.05;;;-2.80;99.90;;;;;;5071860;28;20196;-67
2022/02/14 01:30:55;;;;;;;11.02;5.53;;;-2.70;99.90;;;;;;5071406;28;20184;-67
2022/02/14 01:33:20;;;;;;;11.18;5.35;;;-2.60;99.90;;;;;;5071509;28;20189;-67
2022/02/14 01:35:46;;;;;;;8.57;4.60;;;-2.60;99.90;;;;;;5071557;28;20671;-67
2022/02/14 01:38:13;;;;;;;8.30;4.90;;;-2.50;99.90;;;;;;5071646;28;20185;-67
2022/02/14 01:40:39;;;;;;;8.63;5.85;;;-2.50;99.90;;;;;;5071591;28;20165;-68
2022/02/14 01:43:08;;;;;;;9.27;5.07;;;-2.50;99.90;;;;;;5071473;28;20594;-67
2022/02/14 01:45:34;;;;;;;8.82;4.45;;;-2.50;99.90;;;;;;5071554;28;20555;-67
2022/02/14 01:48:00;;;;;;;7.72;5.22;;;-2.50;99.90;;;;;;5071400;28;20193;-67
2022/02/14 01:50:26;;;;;;;6.00;4.93;;;-2.50;99.90;;;;;;5071316;28;20176;-68
2022/02/14 01:52:54;;;;;;;8.80;4.80;;;-2.50;99.90;;;;;;5071114;28;20195;-67
2022/02/14 01:55:20;;;;;;;8.77;4.50;;;-2.40;99.90;;;;;;5071415;28;20167;-69
2022/02/14 01:57:48;;;;;;;7.35;4.75;;;-2.50;99.90;;;;;;5071189;28;20199;-68
2022/02/14 02:00:17;;;;;;;7.32;4.70;;;-2.60;99.90;;;;;;5071238;28;20160;-70
2022/02/14 02:02:43;;;;;;;7.15;3.55;;;-2.70;99.90;;;;;;5071135;28;20251;-68
2022/02/14 02:05:09;;;;;;;9.93;4.05;;;-2.80;99.90;;;;;;5071034;28;20169;-68
2022/02/14 02:07:35;;;;;;;9.23;4.38;;;-2.80;99.90;;;;;;5070892;28;20165;-68
2022/02/14 02:10:04;;;;;;;9.05;5.32;;;-2.90;99.90;;;;;;5070986;28;20145;-69
2022/02/14 02:12:30;;;;;;;7.53;4.68;;;-2.80;99.90;;;;;;5070835;28;20157;-68
2022/02/14 02:15:02;;;;;;;8.88;4.70;;;-2.90;99.90;;;;;;5070826;28;20215;-68
2022/02/14 02:17:31;;;;;;;6.55;4.72;;;-3.00;99.90;;;;;;5070849;28;20157;-68
2022/02/14 02:19:57;;;;;;;9.73;4.82;;;-3.10;99.90;;;;;;5070786;28;20225;-68
2022/02/14 02:22:24;;;;;;;10.48;4.72;;;-3.20;99.90;;;;;;5070790;28;20538;-68
2022/02/14 02:24:50;;;;;;;6.55;4.05;;;-3.40;99.90;;;;;;5070791;28;20172;-68
2022/02/14 02:27:18;;;;;;;8.15;3.95;;;-3.40;99.90;;;;;;5070649;28;20153;-68
2022/02/14 02:29:44;;;;;;;8.60;3.72;;;-3.60;99.90;;;;;;5070605;28;20193;-68
2022/02/14 02:32:12;;;;;;;6.85;4.38;;;-3.60;99.90;;;;;;5070573;28;20160;-68
2022/02/14 02:34:41;;;;;;;8.35;4.70;;;-3.70;99.90;;;;;;5070270;28;20191;-67
2022/02/14 02:37:10;;;;;;;13.18;4.88;;;-3.80;99.90;;;;;;5070558;28;20164;-67
2022/02/14 02:39:37;;;;;;;8.98;4.05;;;-3.80;99.90;;;;;;5070244;28;20284;-68
2022/02/14 02:42:07;;;;;;;9.77;4.47;;;-3.80;99.90;;;;;;5070344;28;20164;-68
2022/02/14 02:44:34;;;;;;;7.13;3.85;;;-3.90;99.90;;;;;;5070323;28;20161;-68
2022/02/14 02:47:01;;;;;;;7.43;3.97;;;-3.90;99.90;;;;;;5070182;28;20224;-68
2022/02/14 02:49:27;;;;;;;5.60;4.15;;;-3.90;99.90;;;;;;5070150;28;20196;-67
2022/02/14 02:51:54;;;;;;;13.40;5.25;;;-4.00;99.90;;;;;;5070241;28;20171;-68
2022/02/14 02:54:22;;;;;;;15.30;5.18;;;-4.10;99.90;;;;;;5070068;28;20184;-68
2022/02/14 02:56:50;;;;;;;8.95;5.18;;;-4.00;99.90;;;;;;5070012;28;20176;-68
2022/02/14 02:59:16;;;;;;;12.80;6.63;;;-4.00;99.90;;;;;;5070017;28;20191;-68
2022/02/14 03:01:43;;;;;;;10.25;5.57;;;-4.00;99.90;;;;;;5069714;28;20189;-68
2022/02/14 03:04:12;;;;;;;10.90;5.68;;;-4.10;99.90;;;;;;5069970;28;20569;-68
2022/02/14 03:06:38;;;;;;;9.43;4.03;;;-3.90;99.90;;;;;;5069901;28;20152;-68
2022/02/14 03:09:05;;;;;;;10.07;5.15;;;-3.90;99.90;;;;;;5069682;28;20199;-68
2022/02/14 03:11:33;;;;;;;7.22;3.88;;;-4.10;99.90;;;;;;5069774;28;20164;-68
2022/02/14 03:13:59;;;;;;;7.07;4.50;;;-4.20;99.90;;;;;;5069690;28;20188;-68
2022/02/14 03:16:25;;;;;;;16.00;5.50;;;-4.30;99.90;;;;;;5069831;28;20156;-68
2022/02/14 03:18:51;;;;;;;8.95;5.43;;;-4.30;99.90;;;;;;5069503;28;20700;-68
2022/02/14 03:21:21;;;;;;;7.13;4.53;;;-4.30;99.90;;;;;;5069509;28;20153;-68
2022/02/14 03:23:48;;;;;;;10.88;4.50;;;-4.40;99.90;;;;;;5069318;28;20188;-68
2022/02/14 03:26:19;;;;;;;7.55;4.10;;;-4.50;99.90;;;;;;5069048;28;20650;-68
2022/02/14 03:28:50;;;;;;;12.43;5.95;;;-4.50;99.90;;;;;;5069406;28;20193;-68
2022/02/14 03:31:17;;;;;;;12.35;5.15;;;-4.50;99.90;;;;;;5069383;28;20157;-68
2022/02/14 03:33:44;;;;;;;15.35;5.47;;;-4.40;99.90;;;;;;5069221;28;20192;-68
2022/02/14 03:36:11;;;;;;;13.77;6.13;;;-4.00;99.90;;;;;;5069203;28;20179;-68
2022/02/14 03:38:38;;;;;;;10.45;5.65;;;-4.10;99.90;;;;;;5069279;28;20192;-67
2022/02/14 03:41:05;;;;;;;9.98;5.20;;;-4.20;99.90;;;;;;5069255;28;20220;-68
2022/02/14 03:43:31;;;;;;;8.32;4.13;;;-4.30;99.90;;;;;;5069176;28;20160;-68
2022/02/14 03:45:58;;;;;;;8.25;6.43;;;-4.40;99.90;;;;;;5069128;28;20157;-68
2022/02/14 03:48:25;;;;;;;7.20;5.15;;;-4.50;99.90;;;;;;5069025;28;20192;-68
2022/02/14 03:50:55;;;;;;;9.98;5.85;;;-4.50;99.90;;;;;;5069139;28;20157;-68
2022/02/14 03:53:26;;;;;;;10.65;5.60;;;-4.40;99.90;;;;;;5068925;28;20191;-68
2022/02/14 03:55:52;;;;;;;6.65;5.07;;;-4.40;99.90;;;;;;5069074;28;20180;-68
2022/02/14 03:58:18;;;;;;;17.02;6.38;;;-4.40;99.90;;;;;;5068816;28;20184;-69
2022/02/14 04:00:45;;;;;;;12.52;5.93;;;-4.50;99.90;;;;;;5068814;28;20165;-68
2022/02/14 04:03:10;;;;;;;15.70;7.25;;;-4.60;99.90;;;;;;5068700;28;20647;-68
2022/02/14 04:05:37;;;;;;;16.52;8.07;;;-4.50;99.90;;;;;;5068919;28;20157;-68
2022/02/14 04:08:03;;;;;;;16.67;7.05;;;-4.40;99.90;;;;;;5068898;28;20198;-68
2022/02/14 04:10:30;;;;;;;14.45;6.45;;;-4.30;99.90;;;;;;5068877;28;20186;-68
2022/02/14 04:12:56;;;;;;;14.23;6.03;;;-4.30;99.90;;;;;;5068747;28;20168;-69
2022/02/14 04:15:23;;;;;;;11.40;7.22;;;-4.20;99.90;;;;;;5068875;28;20172;-69
2022/02/14 04:17:50;;;;;;;11.90;6.50;;;-4.20;99.90;;;;;;5068861;28;20189;-67
2022/02/14 04:20:17;;;;;;;14.25;7.70;;;-4.20;99.90;;;;;;5068766;28;20153;-68
2022/02/14 04:22:43;;;;;;;14.43;7.30;;;-4.40;99.90;;;;;;5068871;28;20153;-67
2022/02/14 04:25:15;;;;;;;8.75;5.60;;;-4.50;99.90;;;;;;5068796;28;20234;-70
2022/02/14 04:27:42;;;;;;;13.05;6.90;;;-4.60;99.90;;;;;;5067328;28;20196;-68
2022/02/14 04:30:11;;;;;;;11.05;6.25;;;-4.60;99.90;;;;;;5068839;28;20157;-68
2022/02/14 04:32:38;;;;;;;8.55;5.20;;;-4.60;99.90;;;;;;5068858;28;20176;-67
2022/02/14 04:35:04;;;;;;;14.18;7.78;;;-4.80;99.90;;;;;;5068634;28;20192;-68
2022/02/14 04:37:30;;;;;;;8.77;6.05;;;-5.00;99.90;;;;;;5070567;28;20163;-67
2022/02/14 04:39:56;;;;;;;14.68;6.80;;;-5.00;99.90;;;;;;5072331;28;20153;-68
2022/02/14 04:42:22;;;;;;;10.60;6.10;;;-5.10;99.90;;;;;;5072435;28;20164;-67
2022/02/14 04:44:48;;;;;;;11.27;6.10;;;-5.10;99.90;;;;;;5072414;28;20161;-68
2022/02/14 04:47:14;;;;;;;11.35;6.22;;;-5.20;99.90;;;;;;5072278;28;20244;-68
2022/02/14 04:49:40;;;;;;;17.42;7.78;;;-5.20;99.90;;;;;;5072241;28;20203;-68
2022/02/14 04:52:07;;;;;;;14.63;5.75;;;-5.10;99.90;;;;;;5072201;28;20157;-68
2022/02/14 04:54:33;;;;;;;9.65;5.38;;;-5.10;99.90;;;;;;5072184;28;20216;-67
2022/02/14 04:56:59;;;;;;;10.57;5.68;;;-5.20;99.90;;;;;;5072248;28;20173;-68
2022/02/14 04:59:24;;;;;;;10.07;5.50;;;-5.30;99.90;;;;;;5072067;28;20193;-67
2022/02/14 05:01:50;;;;;;;13.07;6.07;;;-5.30;99.90;;;;;;5071877;28;20183;-68
2022/02/14 05:04:20;;;;;;;11.25;6.25;;;-5.30;99.90;;;;;;5070863;28;20185;-68
2022/02/14 05:06:46;;;;;;;17.80;5.95;;;-5.30;99.90;;;;;;5071913;28;20157;-68
2022/02/14 05:09:12;;;;;;;12.05;5.40;;;-5.30;99.90;;;;;;5071847;28;20198;-68
2022/02/14 05:11:38;;;;;;;12.43;5.93;;;-5.20;99.90;;;;;;5071841;28;20161;-68
2022/02/14 05:14:04;;;;;;;16.27;5.70;;;-5.20;99.90;;;;;;5071801;28;20187;-67
2022/02/14 05:16:30;;;;;;;10.57;5.65;;;-5.10;99.90;;;;;;5071735;28;20169;-68
2022/02/14 05:18:56;;;;;;;11.32;6.00;;;-5.10;99.90;;;;;;5071699;28;20180;-68
2022/02/14 05:21:22;;;;;;;6.75;5.10;;;-5.20;99.90;;;;;;5071633;28;20163;-68
2022/02/14 05:23:51;;;;;;;9.35;6.28;;;-5.30;99.90;;;;;;5071550;28;20168;-68
2022/02/14 05:26:19;;;;;;;12.43;6.20;;;-5.40;99.90;;;;;;5071838;28;20153;-68
2022/02/14 05:28:44;;;;;;;11.23;6.38;;;-5.40;99.90;;;;;;5071526;28;20188;-67
2022/02/14 05:31:10;;;;;;;9.98;5.25;;;-5.40;99.90;;;;;;5071521;28;20175;-68
2022/02/14 05:33:36;;;;;;;8.68;5.15;;;-5.50;99.90;;;;;;5071612;28;20207;-68
2022/02/14 05:36:02;;;;;;;13.70;6.18;;;-5.50;99.90;;;;;;5071386;28;20160;-68
2022/02/14 05:38:28;;;;;;;9.63;5.32;;;-5.50;99.90;;;;;;5071164;28;20621;-68
2022/02/14 05:40:54;;;;;;;6.85;4.25;;;-5.50;99.90;;;;;;5070060;28;20179;-69
2022/02/14 05:43:20;;;;;;;8.25;4.40;;;-5.30;99.90;;;;;;5069767;28;20246;-68
2022/02/14 05:45:46;;;;;;;10.55;5.57;;;-4.70;99.90;;;;;;5071260;28;20164;-68
2022/02/14 05:48:12;;;;;;;11.55;5.55;;;-4.50;99.90;;;;;;5070671;28;20196;-68
2022/02/14 05:50:38;;;;;;;15.75;5.72;;;-4.40;99.90;;;;;;5071126;28;20164;-68
2022/02/14 05:53:03;;;;;;;9.30;5.07;;;-4.20;99.90;;;;;;5070787;28;20216;-69
2022/02/14 05:55:29;;;;;;;20.20;6.20;;;-4.10;99.90;;;;;;5071030;28;20183;-67
2022/02/14 05:57:55;;;;;;;13.35;6.65;;;-4.10;99.90;;;;;;5070914;28;20192;-70
2022/02/14 06:00:21;;;;;;;9.55;5.65;;;-4.00;99.90;;;;;;5070689;28;20172;-68
2022/02/14 06:02:47;;;;;;;18.15;5.88;;;-4.00;99.90;;;;;;5070857;28;20243;-70
2022/02/14 06:05:13;;;;;;;9.88;5.78;;;-4.00;99.90;;;;;;5070823;28;20259;-68
2022/02/14 06:07:39;;;;;;;10.02;5.35;;;-4.00;99.90;;;;;;5070614;28;20244;-68
2022/02/14 06:10:05;;;;;;;12.38;4.97;;;-4.10;99.90;;;;;;5070775;28;20164;-68
2022/02/14 06:12:34;;;;;;;7.35;4.65;;;-4.20;99.90;;;;;;5070507;28;20211;-68
2022/02/14 06:15:00;;;;;;;6.60;4.82;;;-4.30;99.90;;;;;;5069168;28;20201;-68
2022/02/14 06:17:26;;;;;;;8.18;4.38;;;-4.20;99.90;;;;;;5070439;28;20183;-69
2022/02/14 06:19:52;;;;;;;12.73;6.50;;;-4.00;99.90;;;;;;5069074;28;20168;-68
2022/02/14 06:22:18;;;;;;;15.32;6.22;;;-3.90;99.90;;;;;;5070323;28;20209;-69
2022/02/14 06:24:43;;;;;;;10.45;6.22;;;-3.90;99.90;;;;;;5070343;28;20168;-69
2022/02/14 06:27:09;;;;;;;13.10;6.15;;;-4.00;99.90;;;;;;5070376;28;20226;-70
2022/02/14 06:29:35;;;;;;;11.88;5.68;;;-4.10;99.90;;;;;;5070174;28;20256;-67
2022/02/14 06:32:01;;;;;;;14.52;6.68;;;-4.00;99.90;;;;;;5070236;28;20188;-68
2022/02/14 06:34:27;;;;;;;10.68;5.68;;;-4.00;99.90;;;;;;5068950;28;20203;-70
2022/02/14 06:36:53;;;;;;;10.77;6.10;;;-3.80;99.90;;;;;;5070346;28;20184;-69
2022/02/14 06:39:19;;;;;;;15.88;6.28;;;-3.70;99.90;;;;;;5070136;28;20188;-67
2022/02/14 06:41:46;;;;;;;12.95;6.53;;;-3.60;99.90;;;;;;5070151;28;20153;-69
2022/02/14 06:44:12;;;;;;;8.43;5.13;;;-3.50;99.90;;;;;;5069912;28;20157;-68
2022/02/14 06:46:38;;;;;;;10.82;5.88;;;-3.50;99.90;;;;;;5070145;28;20161;-68
2022/02/14 06:49:06;;;;;;;12.35;5.38;;;-3.40;99.90;;;;;;5069721;28;20275;-69
2022/02/14 06:51:36;;;;;;;10.63;6.70;;;-3.10;99.90;;;;;;5070084;28;20153;-68
2022/02/14 06:54:03;;;;;;;12.70;7.03;;;-3.10;99.90;;;;;;5069691;28;20189;-69
2022/02/14 06:56:29;;;;;;;16.02;8.45;;;-3.20;99.90;;;;;;5069663;28;20153;-68
2022/02/14 06:58:55;;;;;;;14.05;7.53;;;-3.20;99.90;;;;;;5069145;28;20188;-68
2022/02/14 07:01:22;;;;;;;16.80;7.13;;;-3.10;99.90;;;;;;5069490;28;20193;-69
2022/02/14 07:03:48;;;;;;;14.40;7.72;;;-3.10;99.90;;;;;;5069523;28;20232;-69
2022/02/14 07:06:15;;;;;;;11.20;5.97;;;-3.10;99.90;;;;;;5069992;28;20168;-67
2022/02/14 07:08:42;;;;;;;16.38;7.03;;;-3.10;99.90;;;;;;5069480;28;20191;-68
2022/02/14 07:11:08;;;;;;;13.25;7.75;;;-3.10;99.90;;;;;;5069376;28;20156;-68
2022/02/14 07:13:34;;;;;;;16.70;7.93;;;-2.90;99.90;;;;;;5068096;28;20229;-68
2022/02/14 07:16:00;;;;;;;15.00;8.65;;;-2.80;99.90;;;;;;5069413;28;20152;-68
2022/02/14 07:18:27;;;;;;;13.52;9.63;;;-2.70;99.90;;;;;;5069279;28;20192;-68
2022/02/14 07:20:53;;;;;;;17.92;7.95;;;-2.00;99.90;;;;;;5069416;28;20153;-69
2022/02/14 07:23:19;;;;;;;22.77;9.32;;;-1.10;99.90;;;;;;5069337;28;20220;-69
2022/02/14 07:25:45;;;;;;;22.13;8.70;;;-1.20;99.90;;;;;;5069227;28;20160;-69
2022/02/14 07:28:10;;;;;;;16.98;8.93;;;-1.70;99.90;;;;;;5079798;28;20203;-69
2022/02/14 07:30:36;;;;;;;14.65;8.82;;;-1.80;99.90;;;;;;5087918;28;20168;-69
2022/02/14 07:33:03;;;;;;;18.15;9.20;;;-1.90;99.90;;;;;;5089087;28;20164;-69
2022/02/14 07:35:29;;;;;;;14.40;9.77;;;-2.00;99.90;;;;;;5081902;28;20190;-69
2022/02/14 07:37:55;;;;;;;11.93;7.32;;;-1.40;99.90;;;;;;5088889;28;20188;-70
2022/02/14 07:40:21;;;;;;;17.20;9.77;;;-1.30;99.90;;;;;;5087661;28;20207;-69
2022/02/14 07:42:47;;;;;;;18.48;7.97;;;-1.40;99.90;;;;;;5089148;28;20179;-68
2022/02/14 07:45:13;;;;;;;17.83;8.35;;;-1.30;99.90;;;;;;5089040;28;20160;-68
2022/02/14 07:47:39;;;;;;;15.68;8.73;;;-1.20;99.90;;;;;;5075877;28;20267;-69
2022/02/14 07:50:06;;;;;;;12.90;7.85;;;-1.10;99.90;;;;;;5068954;28;20223;-69
2022/02/14 07:52:33;;;;;;;18.63;9.77;;;-0.80;99.90;;;;;;5068906;28;20161;-69
2022/02/14 07:54:59;;;;;;;13.18;8.82;;;1.20;99.90;;;;;;5068725;28;20192;-68
2022/02/14 07:57:25;;;;;;;18.23;8.63;;;2.10;99.90;;;;;;5072965;28;20171;-68
2022/02/14 07:59:52;;;;;;;14.90;7.38;;;1.30;99.90;;;;;;5088941;28;20182;-68
2022/02/14 08:02:18;;;;;;;12.05;7.00;;;0.50;99.90;;;;;;5088823;28;20241;-68
2022/02/14 08:04:46;;;;;;;22.80;7.30;;;0.10;99.90;;;;;;5089050;28;20164;-68
2022/02/14 08:07:12;;;;;;;11.43;6.65;;;-0.10;99.90;;;;;;5089074;28;20219;-68
2022/02/14 08:09:39;;;;;;;31.25;7.40;;;-0.20;99.90;;;;;;5087381;28;20206;-68
2022/02/14 08:12:08;;;;;;;11.07;7.05;;;-0.30;99.90;;;;;;5091992;28;20183;-69
2022/02/14 08:14:38;;;;;;;19.73;7.22;;;-0.10;99.90;;;;;;5092619;28;20285;-69
2022/02/14 08:17:06;;;;;;;10.00;6.40;;;0.20;99.90;;;;;;5092853;28;20160;-68
2022/02/14 08:19:33;;;;;;;14.40;7.65;;;0.50;99.90;;;;;;5092830;28;20579;-68
2022/02/14 08:21:59;;;;;;;12.77;6.75;;;0.70;99.90;;;;;;5092723;28;20168;-68
2022/02/14 08:24:25;;;;;;;14.32;8.02;;;0.60;99.90;;;;;;5091574;28;20167;-68
2022/02/14 08:26:51;;;;;;;9.95;6.72;;;0.70;99.90;;;;;;5092988;28;20156;-69
2022/02/14 08:29:17;;;;;;;20.30;7.60;;;1.00;99.90;;;;;;5092720;28;20215;-68
2022/02/14 08:31:43;;;;;;;14.98;7.13;;;1.20;99.90;;;;;;5092691;28;20160;-69
2022/02/14 08:34:09;;;;;;;14.80;8.27;;;1.80;99.90;;;;;;5091274;28;20219;-68
2022/02/14 08:36:35;;;;;;;18.95;8.60;;;5.50;99.90;;;;;;5092757;28;20224;-68
2022/02/14 08:39:01;;;;;;;16.95;8.65;;;9.40;99.90;;;;;;5092556;28;20188;-69
2022/02/14 08:41:27;;;;;;;23.88;8.18;;;11.40;99.60;;;;;;5091177;28;20259;-68
2022/02/14 08:43:53;;;;;;;19.80;8.02;;;12.60;97.50;;;;;;5092474;28;20156;-68
2022/02/14 08:46:21;;;;;;;9.07;5.90;;;13.20;96.90;;;;;;5091029;28;20215;-69
2022/02/14 08:48:51;;;;;;;9.32;5.28;;;13.50;95.50;;;;;;5092038;28;20218;-69
2022/02/14 08:51:20;;;;;;;9.75;6.43;;;12.90;96.00;;;;;;5092346;28;20171;-68
2022/02/14 08:53:47;;;;;;;17.35;6.97;;;12.90;95.50;;;;;;5092360;28;20230;-68
2022/02/14 08:56:14;;;;;;;9.30;5.38;;;13.40;95.10;;;;;;5092201;28;20156;-68
2022/02/14 08:58:40;;;;;;;18.98;6.82;;;13.80;94.50;;;;;;5092287;28;20184;-68
2022/02/14 09:01:06;;;;;;;19.80;6.55;;;14.40;93.70;;;;;;5092048;28;20152;-68
2022/02/14 09:03:34;;;;;;;16.65;6.45;;;15.00;93.50;;;;;;5090492;28;20259;-68
2022/02/14 09:06:00;;;;;;;16.98;6.97;;;15.30;92.90;;;;;;5092173;28;20159;-68
2022/02/14 09:08:26;;;;;;;17.80;7.63;;;14.90;93.60;;;;;;5092210;28;20198;-68
2022/02/14 09:11:01;;;;;;;8.18;6.28;;;14.10;93.40;;;;;;5092080;28;20238;-69
2022/02/14 09:13:28;;;;;;;10.55;7.13;;;14.10;93.20;;;;;;5091897;28;20191;-69
2022/02/14 09:15:54;;;;;;;21.60;7.38;;;14.30;93.40;;;;;;5091867;28;20163;-68
2022/02/14 09:18:20;;;;;;;23.15;7.53;;;13.60;93.40;;;;;;5091843;28;20200;-68
2022/02/14 09:20:47;;;;;;;14.52;7.57;;;13.70;92.90;;;;;;5091807;28;20164;-68
2022/02/14 09:23:14;;;;;;;11.43;7.13;;;13.00;93.20;;;;;;5090910;28;20615;-68
2022/02/14 09:25:41;;;;;;;9.98;6.30;;;13.10;93.10;;;;;;5091743;28;20153;-68
2022/02/14 09:28:08;;;;;;;15.93;7.03;;;12.50;93.30;;;;;;5091662;28;20188;-68
2022/02/14 09:30:34;;;;;;;20.40;7.80;;;13.20;94.50;;;;;;5091567;28;20164;-68
2022/02/14 09:33:00;;;;;;;16.08;7.10;;;13.00;94.00;;;;;;5091682;28;20170;-68
2022/02/14 09:35:26;;;;;;;14.65;7.28;;;12.50;95.30;;;;;;5091850;28;20614;-67
2022/02/14 09:37:58;;;;;;;24.83;7.80;;;12.30;95.60;;;;;;5089961;28;20195;-68
2022/02/14 09:40:25;;;;;;;22.63;9.13;;;13.60;94.90;;;;;;5090312;28;20168;-68
2022/02/14 09:42:55;;;;;;;18.85;8.35;;;14.10;92.30;;;;;;5091444;28;20156;-68
2022/02/14 09:45:23;;;;;;;20.55;7.30;;;13.70;93.00;;;;;;5090077;28;20172;-68
2022/02/14 09:48:01;;;;;;;18.48;7.40;;;13.20;93.10;;;;;;5090344;28;20190;-68
2022/02/14 09:50:29;;;;;;;14.02;7.15;;;13.10;94.60;;;;;;5090953;28;20160;-68
2022/02/14 09:52:55;;;;;;;13.02;7.55;;;12.80;93.30;;;;;;5091026;28;20167;-68
2022/02/14 09:55:21;;;;;;;18.25;8.07;;;12.50;94.00;;;;;;5091093;28;20227;-68
2022/02/14 09:57:47;;;;;;;18.60;7.95;;;13.10;93.80;;;;;;5091058;28;20229;-68
2022/02/14 10:00:15;;;;;;;14.30;7.07;;;13.30;93.80;;;;;;5091003;28;20160;-68
2022/02/14 10:02:41;;;;;;;15.02;7.10;;;13.70;92.40;;;;;;5090555;28;20281;-68
2022/02/14 10:05:09;;;;;;;16.35;7.03;;;13.10;93.40;;;;;;5090808;28;20192;-68
2022/02/14 10:07:46;;;;;;;13.30;7.40;;;13.10;94.10;;;;;;5090697;28;20183;-69
2022/02/14 10:10:18;;;;;;;10.88;7.18;;;14.00;93.00;;;;;;5090655;28;20179;-69
2022/02/14 10:12:59;;;;;;;13.35;6.75;;;12.80;94.40;;;;;;5090898;28;20302;-69
2022/02/14 10:15:26;;;;;;;10.90;6.72;;;13.10;94.20;;;;;;5090880;28;20676;-69
2022/02/14 10:17:59;;;;;;;19.02;7.05;;;13.80;92.40;;;;;;5088992;28;20618;-69
2022/02/14 10:20:26;;;;;;;17.90;7.78;;;14.10;91.70;;;;;;5091076;28;20235;-68
2022/02/14 10:23:00;;;;;;;17.45;7.75;;;13.00;93.10;;;;;;5094094;28;20177;-68
2022/02/14 10:25:41;;;;;;;12.75;7.28;;;12.90;93.30;;;;;;5100627;28;20183;-69
2022/02/14 10:28:29;;;;;;;14.27;7.00;;;13.10;94.30;;;;;;5107489;28;20195;-69
2022/02/14 10:31:08;;;;;;;21.83;7.15;;;13.60;92.60;;;;;;5090377;28;20287;-68
2022/02/14 10:33:54;;;;;;;11.52;6.63;;;12.60;92.80;;;;;;5085708;28;20202;-69
2022/02/14 10:36:31;;;;;;;13.57;6.57;;;12.70;92.70;;;;;;5103144;28;20164;-68
2022/02/14 10:39:13;;;;;;;12.82;7.03;;;12.80;93.40;;;;;;5101954;28;20256;-69
2022/02/14 10:41:44;;;;;;;11.50;6.57;;;13.20;93.00;;;;;;5093457;28;20163;-68
2022/02/14 10:47:14;;;;;;;17.08;7.53;;;13.90;92.40;;;;;;5092844;28;20206;-67
2022/02/14 10:49:41;;;;;;;17.20;7.32;;;13.80;92.70;;;;;;5088733;28;20183;-67
2022/02/14 10:52:10;;;;;;;21.00;6.80;;;14.10;92.20;;;;;;5089959;28;20163;-68
2022/02/14 10:54:43;;;;;;;17.77;7.00;;;13.80;91.40;;;;;;5089604;28;20187;-68
2022/02/14 10:57:30;;;;;;;14.88;6.05;;;13.00;92.20;;;;;;5090077;28;20157;-68
2022/02/14 10:59:57;;;;;;;16.50;7.10;;;12.80;92.00;;;;;;5089802;28;20155;-68
2022/02/14 11:02:23;;;;;;;14.93;5.45;;;12.90;92.60;;;;;;5089409;28;20231;-68
2022/02/14 11:04:50;;;;;;;12.48;4.75;;;13.60;91.30;;;;;;5089607;28;20176;-67
2022/02/14 11:07:18;;;;;;;11.45;5.15;;;13.10;91.10;;;;;;5089647;28;20171;-69
2022/02/14 11:09:47;;;;;;;10.15;5.47;;;13.30;91.60;;;;;;5089594;28;20199;-67
2022/02/14 11:12:15;;;;;;;20.65;6.82;;;12.70;92.00;;;;;;5089762;28;20172;-68
2022/02/14 11:14:44;;;;;;;8.32;5.40;;;13.20;92.40;;;;;;5089306;28;20195;-67
2022/02/14 11:17:12;;;;;;;10.40;6.03;;;13.30;91.60;;;;;;5089533;28;20149;-68
2022/02/14 11:19:40;;;;;;;9.73;6.28;;;13.00;92.10;;;;;;5088963;28;20241;-67
2022/02/14 11:22:06;;;;;;;13.80;5.90;;;13.50;92.70;;;;;;5088805;28;20152;-67
2022/02/14 11:24:36;;;;;;;11.60;6.03;;;14.10;91.20;;;;;;5089366;28;20282;-68
2022/02/14 11:27:06;;;;;;;7.63;5.82;;;13.70;91.80;;;;;;5089351;28;20148;-68
2022/02/14 11:29:35;;;;;;;15.02;6.30;;;13.40;91.10;;;;;;5088993;28;20152;-68
2022/02/14 11:32:21;;;;;;;11.40;7.22;;;13.20;92.60;;;;;;5087855;28;20180;-67
2022/02/14 11:34:52;;;;;;;13.93;8.32;;;13.50;93.10;;;;;;5089066;28;20203;-68
2022/02/14 11:37:19;;;;;;;13.93;7.90;;;14.10;92.10;;;;;;5089307;28;20148;-68
2022/02/14 11:39:45;;;;;;;15.10;8.00;;;13.70;92.30;;;;;;5089091;28;20160;-68
2022/02/14 11:42:11;;;;;;;12.40;8.27;;;13.10;93.00;;;;;;5089129;28;20162;-66
2022/02/14 11:44:38;;;;;;;11.98;7.32;;;13.40;92.40;;;;;;5087855;28;20199;-68
2022/02/14 11:47:08;;;;;;;14.48;8.55;;;12.70;92.90;;;;;;5088637;28;20161;-67
2022/02/14 11:49:48;;;;;;;16.27;7.70;;;13.10;93.20;;;;;;5089005;28;20168;-67
2022/02/14 11:52:34;;;;;;;9.95;6.88;;;13.60;92.50;;;;;;5089058;28;20166;-68
2022/02/14 11:55:03;;;;;;;21.23;9.00;;;12.80;92.80;;;;;;5088781;28;20207;-68
2022/02/14 11:57:33;;;;;;;9.40;6.63;;;13.20;92.70;;;;;;5089110;28;20152;-67
2022/02/14 12:00:27;;;;;;;10.93;6.60;;;13.30;93.00;;;;;;5088841;28;20145;-67
2022/02/14 12:03:16;;;;;;;10.52;7.20;;;13.10;93.20;;;;;;5088833;28;20245;-68
2022/02/14 12:06:02;;;;;;;9.38;6.57;;;13.10;93.00;;;;;;5087463;28;20203;-68
2022/02/14 12:08:58;;;;;;;13.57;8.07;;;14.30;91.90;;;;;;5088839;28;20156;-70
2022/02/14 12:11:47;;;;;;;10.73;7.07;;;13.90;91.60;;;;;;5088949;28;20188;-70
2022/02/14 12:14:17;;;;;;;10.43;7.07;;;13.90;91.90;;;;;;5088738;28;20239;-68
2022/02/14 12:22:31;;;;;;;15.50;6.13;;;14.30;91.00;;;;;;5088735;28;20170;-69
2022/02/14 12:24:57;;;;;;;10.05;6.03;;;15.00;90.10;;;;;;5088672;28;20211;-69
2022/02/14 12:27:23;;;;;;;8.45;5.15;;;14.70;90.20;;;;;;5088830;28;20658;-69
2022/02/14 12:29:50;;;;;;;7.78;5.35;;;14.70;89.50;;;;;;5088635;28;20167;-68
2022/02/14 12:32:17;;;;;;;10.07;5.93;;;15.00;86.30;;;;;;5088442;28;20160;-67
2022/02/14 12:34:45;;;;;;;9.52;5.47;;;14.80;88.80;;;;;;5087086;28;20297;-68
2022/02/14 12:37:14;;;;;;;6.75;5.38;;;13.80;90.10;;;;;;5088447;28;20160;-68
2022/02/14 12:39:46;;;;;;;11.32;6.15;;;14.00;91.00;;;;;;5088561;28;20156;-68
2022/02/14 12:42:14;;;;;;;9.07;5.82;;;14.00;91.10;;;;;;5088580;28;20157;-67
2022/02/14 12:44:42;;;;;;;10.65;7.07;;;13.00;91.10;;;;;;5088449;28;20204;-66
2022/02/14 12:47:12;;;;;;;9.25;5.97;;;11.60;92.90;;;;;;5088234;28;20735;-69
2022/02/14 12:49:40;;;;;;;10.70;6.05;;;10.70;93.30;;;;;;5087145;28;20180;-67
2022/02/14 12:52:15;;;;;;;12.95;5.65;;;10.10;94.30;;;;;;5088558;28;20152;-66